createdAt,value
2017-08-22T00:00:02.272Z,83.84
2017-08-22T00:02:32.373Z,84.42
2017-08-22T00:05:00.274Z,84.34
2017-08-22T00:07:28.459Z,84.13
2017-08-22T00:09:56.358Z,84.43
2017-08-22T00:12:24.259Z,84.51
2017-08-22T00:14:52.173Z,84.61
2017-08-22T00:17:20.081Z,84.35
2017-08-22T00:19:48.171Z,84.74
2017-08-22T00:22:16.058Z,84.60
2017-08-22T00:24:43.963Z,84.71
2017-08-22T00:27:11.970Z,84.40
2017-08-22T00:29:39.874Z,84.28
2017-08-22T00:32:07.787Z,84.65
2017-08-22T00:34:35.687Z,84.72
2017-08-22T00:37:03.600Z,85.21
2017-08-22T00:39:31.512Z,85.27
2017-08-22T00:41:59.786Z,85.22
2017-08-22T00:44:27.681Z,86.11
2017-08-22T00:46:55.575Z,86.08
2017-08-22T00:49:23.483Z,86.25
2017-08-22T00:51:51.379Z,86.45
2017-08-22T00:54:19.583Z,86.88
2017-08-22T00:56:47.483Z,86.96
2017-08-22T00:59:15.404Z,86.73
2017-08-22T01:01:43.298Z,86.95
2017-08-22T01:04:11.208Z,87.04
2017-08-22T01:06:39.112Z,86.83
2017-08-22T01:09:07.024Z,86.86
2017-08-22T01:11:34.935Z,86.92
2017-08-22T01:14:02.993Z,87.10
2017-08-22T01:16:30.890Z,87.29
2017-08-22T01:18:58.790Z,87.36
2017-08-22T01:21:26.761Z,87.36
2017-08-22T01:23:54.671Z,87.33
2017-08-22T01:26:22.588Z,86.96
2017-08-22T01:28:50.477Z,87.05
2017-08-22T01:31:18.387Z,87.16
2017-08-22T01:33:46.282Z,87.13
2017-08-22T01:36:14.201Z,86.91
2017-08-22T01:38:42.109Z,86.97
2017-08-22T01:41:10.027Z,86.71
2017-08-22T01:43:37.930Z,86.68
2017-08-22T01:46:05.829Z,86.61
2017-08-22T01:48:33.735Z,85.99
2017-08-22T01:51:01.871Z,86.12
2017-08-22T01:53:29.771Z,86.17
2017-08-22T01:55:57.671Z,85.79
2017-08-22T01:58:25.571Z,85.97
2017-08-22T02:00:53.707Z,85.88
2017-08-22T02:03:21.605Z,85.45
2017-08-22T02:05:49.507Z,85.88
2017-08-22T02:08:17.412Z,85.39
2017-08-22T02:10:45.320Z,85.32
2017-08-22T02:13:13.232Z,85.80
2017-08-22T02:15:41.122Z,85.77
2017-08-22T02:18:09.035Z,85.70
2017-08-22T02:20:36.968Z,86.19
2017-08-22T02:23:04.888Z,85.88
2017-08-22T02:25:32.795Z,86.01
2017-08-22T02:28:00.716Z,86.07
2017-08-22T02:30:28.620Z,86.01
2017-08-22T02:32:56.532Z,85.96
2017-08-22T02:35:24.444Z,85.63
2017-08-22T02:37:52.385Z,85.74
2017-08-22T02:40:20.283Z,86.28
2017-08-22T02:42:48.379Z,86.29
2017-08-22T02:45:16.270Z,86.21
2017-08-22T02:47:44.180Z,86.19
2017-08-22T02:50:12.096Z,86.30
2017-08-22T02:52:40.003Z,85.99
2017-08-22T02:55:07.922Z,85.69
2017-08-22T02:57:35.818Z,86.06
2017-08-22T03:00:03.731Z,86.14
2017-08-22T03:02:31.640Z,86.21
2017-08-22T03:04:59.560Z,86.21
2017-08-22T03:07:27.465Z,85.61
2017-08-22T03:09:55.543Z,85.84
2017-08-22T03:12:23.444Z,85.99
2017-08-22T03:14:51.348Z,85.87
2017-08-22T03:17:19.252Z,85.50
2017-08-22T03:19:47.154Z,85.16
2017-08-22T03:22:15.063Z,84.51
2017-08-22T03:24:42.956Z,84.35
2017-08-22T03:27:10.862Z,84.02
2017-08-22T03:29:38.758Z,83.76
2017-08-22T03:32:06.671Z,83.55
2017-08-22T03:34:34.570Z,83.29
2017-08-22T03:37:02.479Z,83.11
2017-08-22T03:39:30.399Z,82.97
2017-08-22T03:41:58.326Z,83.00
2017-08-22T03:44:26.218Z,83.15
2017-08-22T03:46:54.132Z,83.36
2017-08-22T03:49:22.035Z,83.50
2017-08-22T03:51:49.952Z,83.44
2017-08-22T03:54:17.879Z,83.50
2017-08-22T03:56:45.948Z,83.71
2017-08-22T03:59:13.837Z,83.81
2017-08-22T04:01:41.743Z,83.41
2017-08-22T04:04:09.660Z,83.85
2017-08-22T04:06:37.557Z,84.06
2017-08-22T04:09:05.468Z,84.05
2017-08-22T04:11:33.368Z,84.31
2017-08-22T04:14:01.412Z,84.02
2017-08-22T04:16:29.335Z,84.38
2017-08-22T04:18:57.239Z,84.42
2017-08-22T04:21:25.146Z,84.46
2017-08-22T04:23:53.357Z,84.67
2017-08-22T04:26:21.272Z,84.47
2017-08-22T04:28:49.174Z,84.42
2017-08-22T04:31:17.078Z,84.16
2017-08-22T04:33:44.974Z,83.99
2017-08-22T04:36:12.883Z,83.67
2017-08-22T04:38:40.792Z,83.11
2017-08-22T04:41:08.901Z,82.48
2017-08-22T04:43:36.811Z,81.47
2017-08-22T04:46:04.734Z,80.64
2017-08-22T04:48:32.625Z,79.92
2017-08-22T04:51:00.667Z,79.24
2017-08-22T04:53:28.565Z,78.64
2017-08-22T04:55:56.470Z,77.40
2017-08-22T04:58:24.373Z,76.64
2017-08-22T05:00:52.279Z,75.70
2017-08-22T05:03:20.182Z,75.02
2017-08-22T05:05:48.087Z,74.14
2017-08-22T05:08:15.991Z,73.69
2017-08-22T05:10:43.891Z,73.39
2017-08-22T05:13:11.801Z,72.65
2017-08-22T05:15:39.707Z,71.67
2017-08-22T05:18:07.607Z,71.12
2017-08-22T05:20:35.516Z,71.01
2017-08-22T05:23:03.432Z,69.65
2017-08-22T05:25:31.324Z,68.63
2017-08-22T05:27:59.238Z,66.77
2017-08-22T05:30:27.148Z,66.07
2017-08-22T05:32:55.047Z,64.68
2017-08-22T05:35:22.949Z,63.71
2017-08-22T05:37:50.846Z,61.87
2017-08-22T05:40:18.765Z,61.08
2017-08-22T05:42:46.676Z,60.14
2017-08-22T05:45:14.582Z,58.80
2017-08-22T05:47:42.803Z,58.26
2017-08-22T05:50:10.713Z,56.33
2017-08-22T05:52:38.624Z,56.16
2017-08-22T05:55:06.987Z,54.96
2017-08-22T05:57:35.348Z,55.01
2017-08-22T06:00:03.700Z,53.67
2017-08-22T06:02:32.047Z,51.88
2017-08-22T06:05:00.402Z,49.11
2017-08-22T06:07:28.757Z,48.59
2017-08-22T06:09:57.114Z,47.23
2017-08-22T06:12:25.606Z,45.62
2017-08-22T06:14:53.951Z,43.84
2017-08-22T06:17:22.303Z,43.39
2017-08-22T06:19:51.003Z,41.59
2017-08-22T06:22:19.352Z,41.00
2017-08-22T06:24:47.967Z,40.97
2017-08-22T06:27:16.316Z,38.85
2017-08-22T06:29:44.666Z,38.88
2017-08-22T06:32:13.022Z,40.22
2017-08-22T06:34:41.446Z,37.94
2017-08-22T06:37:09.803Z,38.60
2017-08-22T06:39:38.150Z,38.54
2017-08-22T06:42:06.735Z,38.98
2017-08-22T06:44:35.267Z,38.13
2017-08-22T06:47:03.603Z,39.12
2017-08-22T06:49:31.952Z,39.42
2017-08-22T06:52:00.307Z,39.13
2017-08-22T06:54:28.646Z,38.73
2017-08-22T06:56:56.994Z,40.03
2017-08-22T06:59:25.335Z,39.96
2017-08-22T07:01:53.707Z,38.29
2017-08-22T07:04:22.049Z,39.08
2017-08-22T07:06:50.409Z,38.64
2017-08-22T07:09:18.764Z,38.62
2017-08-22T07:11:47.272Z,39.00
2017-08-22T07:14:15.179Z,38.39
2017-08-22T07:16:43.539Z,36.82
2017-08-22T07:19:11.967Z,36.26
2017-08-22T07:21:40.303Z,35.28
2017-08-22T07:24:08.700Z,34.65
2017-08-22T07:26:37.044Z,36.31
2017-08-22T07:29:05.408Z,36.94
2017-08-22T07:31:33.748Z,36.48
2017-08-22T07:34:02.104Z,37.13
2017-08-22T07:36:30.461Z,36.00
2017-08-22T07:38:58.811Z,34.23
2017-08-22T07:41:27.155Z,33.40
2017-08-22T07:43:55.517Z,31.74
2017-08-22T07:46:23.925Z,33.25
2017-08-22T07:48:52.288Z,36.20
2017-08-22T07:51:20.635Z,37.04
2017-08-22T07:53:49.292Z,37.78
2017-08-22T07:56:17.649Z,39.27
2017-08-22T07:58:45.996Z,40.94
2017-08-22T08:01:14.347Z,43.45
2017-08-22T08:03:42.704Z,44.22
2017-08-22T08:06:11.045Z,44.24
2017-08-22T08:08:39.386Z,46.65
2017-08-22T08:11:07.753Z,48.48
2017-08-22T08:13:36.105Z,49.73
2017-08-22T08:16:04.611Z,50.22
2017-08-22T08:18:32.960Z,51.68
2017-08-22T08:21:01.316Z,52.06
2017-08-22T08:23:29.661Z,52.54
2017-08-22T08:25:58.012Z,53.65
2017-08-22T08:28:26.376Z,53.83
2017-08-22T08:30:54.721Z,54.33
2017-08-22T08:33:23.078Z,54.00
2017-08-22T08:35:51.440Z,53.26
2017-08-22T08:38:19.797Z,52.82
2017-08-22T08:40:48.452Z,53.55
2017-08-22T08:43:16.979Z,54.47
2017-08-22T08:45:45.332Z,53.73
2017-08-22T08:48:13.688Z,53.24
2017-08-22T08:50:42.048Z,52.50
2017-08-22T08:53:10.402Z,52.13
2017-08-22T08:55:38.767Z,51.91
2017-08-22T08:58:07.117Z,52.39
2017-08-22T09:00:35.484Z,52.04
2017-08-22T09:03:03.839Z,51.63
2017-08-22T09:05:32.192Z,52.32
2017-08-22T09:08:00.544Z,51.71
2017-08-22T09:10:29.268Z,51.39
2017-08-22T09:12:57.626Z,52.40
2017-08-22T09:15:25.980Z,52.07
2017-08-22T09:17:54.653Z,51.98
2017-08-22T09:20:23.027Z,51.44
2017-08-22T09:22:51.413Z,51.06
2017-08-22T09:25:19.768Z,50.66
2017-08-22T09:27:48.129Z,50.26
2017-08-22T09:30:16.474Z,50.69
2017-08-22T09:32:45.133Z,50.40
2017-08-22T09:35:13.481Z,50.41
2017-08-22T09:37:42.054Z,49.90
2017-08-22T09:40:10.403Z,48.75
2017-08-22T09:42:38.761Z,48.19
2017-08-22T09:45:07.186Z,46.46
2017-08-22T09:47:35.616Z,44.62
2017-08-22T09:50:03.989Z,44.48
2017-08-22T09:52:32.344Z,45.37
2017-08-22T09:55:00.694Z,45.16
2017-08-22T09:57:29.049Z,45.54
2017-08-22T09:59:57.416Z,45.99
2017-08-22T10:02:25.773Z,45.01
2017-08-22T10:04:54.530Z,45.91
2017-08-22T10:07:22.874Z,46.64
2017-08-22T10:09:51.282Z,46.07
2017-08-22T10:12:19.634Z,45.86
2017-08-22T10:15:18.259Z,46.45
2017-08-22T10:17:46.602Z,46.26
2017-08-22T10:20:14.943Z,46.26
2017-08-22T10:22:43.305Z,45.56
2017-08-22T10:25:11.651Z,44.79
2017-08-22T10:27:40.039Z,43.96
2017-08-22T10:30:08.390Z,43.14
2017-08-22T10:32:36.761Z,42.27
2017-08-22T10:35:05.117Z,42.66
2017-08-22T10:37:33.560Z,42.98
2017-08-22T10:40:01.903Z,43.27
2017-08-22T10:42:30.440Z,43.54
2017-08-22T10:44:58.793Z,41.88
2017-08-22T10:47:27.135Z,42.58
2017-08-22T10:49:55.483Z,41.60
2017-08-22T10:52:23.823Z,38.72
2017-08-22T10:54:52.182Z,37.77
2017-08-22T10:57:20.532Z,38.17
2017-08-22T10:59:48.882Z,38.48
2017-08-22T11:02:17.224Z,39.33
2017-08-22T11:04:45.631Z,40.77
2017-08-22T11:07:13.981Z,41.88
2017-08-22T11:09:42.520Z,43.42
2017-08-22T11:12:10.873Z,44.28
2017-08-22T11:14:39.225Z,44.57
2017-08-22T11:17:07.581Z,43.79
2017-08-22T11:19:35.919Z,44.87
2017-08-22T11:22:04.285Z,45.86
2017-08-22T11:24:32.637Z,46.20
2017-08-22T11:27:00.990Z,47.26
2017-08-22T11:29:29.349Z,46.28
2017-08-22T11:31:57.720Z,45.23
2017-08-22T11:34:26.086Z,44.69
2017-08-22T11:36:54.476Z,43.24
2017-08-22T11:39:22.821Z,43.07
2017-08-22T11:41:51.182Z,43.81
2017-08-22T11:44:19.559Z,43.67
2017-08-22T11:46:47.909Z,44.10
2017-08-22T11:49:16.268Z,43.81
2017-08-22T11:51:44.632Z,44.58
2017-08-22T11:54:13.006Z,44.58
2017-08-22T11:56:41.357Z,45.23
2017-08-22T11:59:09.717Z,45.96
2017-08-22T12:01:38.060Z,46.83
2017-08-22T12:04:06.416Z,47.57
2017-08-22T12:06:34.769Z,48.45
2017-08-22T12:09:03.115Z,49.12
2017-08-22T12:11:31.477Z,49.12
2017-08-22T12:13:59.852Z,49.19
2017-08-22T12:16:28.204Z,49.50
2017-08-22T12:18:56.875Z,49.99
2017-08-22T12:21:25.236Z,49.58
2017-08-22T12:23:53.595Z,49.63
2017-08-22T12:26:21.954Z,50.78
2017-08-22T12:28:50.452Z,51.25
2017-08-22T12:31:18.957Z,50.16
2017-08-22T12:33:47.309Z,50.87
2017-08-22T12:36:15.655Z,50.50
2017-08-22T12:38:44.008Z,49.64
2017-08-22T12:41:12.365Z,49.24
2017-08-22T12:43:40.719Z,48.03
2017-08-22T12:46:09.076Z,48.43
2017-08-22T12:48:37.427Z,47.48
2017-08-22T12:51:05.781Z,46.59
2017-08-22T12:53:34.261Z,45.97
2017-08-22T12:56:02.599Z,46.19
2017-08-22T12:58:30.948Z,45.40
2017-08-22T13:00:59.308Z,44.64
2017-08-22T13:03:27.661Z,46.16
2017-08-22T13:05:56.403Z,46.88
2017-08-22T13:08:24.758Z,47.11
2017-08-22T13:10:53.120Z,46.96
2017-08-22T13:13:21.475Z,46.90
2017-08-22T13:15:49.828Z,46.41
2017-08-22T13:18:18.237Z,46.74
2017-08-22T13:20:46.845Z,45.35
2017-08-22T13:23:15.196Z,44.62
2017-08-22T13:25:43.578Z,44.10
2017-08-22T13:28:11.931Z,44.02
2017-08-22T13:30:40.286Z,44.20
2017-08-22T13:33:08.652Z,42.63
2017-08-22T13:35:37.005Z,42.14
2017-08-22T13:38:05.390Z,42.60
2017-08-22T13:40:33.727Z,43.23
2017-08-22T13:43:02.079Z,42.95
2017-08-22T13:45:30.440Z,43.97
2017-08-22T13:47:58.800Z,44.67
2017-08-22T13:50:27.158Z,45.34
2017-08-22T13:52:55.516Z,46.64
2017-08-22T13:55:23.865Z,47.41
2017-08-22T13:57:52.224Z,47.72
2017-08-22T14:00:20.566Z,47.38
2017-08-22T14:02:49.098Z,47.16
2017-08-22T14:05:17.453Z,47.50
2017-08-22T14:07:45.808Z,46.97
2017-08-22T14:10:14.159Z,46.28
2017-08-22T14:12:42.516Z,45.78
2017-08-22T14:15:10.885Z,45.73
2017-08-22T14:17:39.227Z,45.00
2017-08-22T14:20:07.575Z,45.30
2017-08-22T14:22:35.932Z,45.27
2017-08-22T14:25:04.283Z,45.50
2017-08-22T14:27:32.644Z,45.92
2017-08-22T14:30:01.008Z,46.28
2017-08-22T14:32:29.363Z,46.73
2017-08-22T14:34:57.982Z,47.04
2017-08-22T14:37:26.330Z,47.29
2017-08-22T14:39:54.675Z,47.29
2017-08-22T14:42:23.037Z,47.30
2017-08-22T14:44:51.392Z,47.28
2017-08-22T14:47:19.743Z,47.64
2017-08-22T14:49:48.083Z,47.31
2017-08-22T14:52:16.827Z,47.69
2017-08-22T14:54:45.170Z,47.40
2017-08-22T14:57:13.541Z,47.55
2017-08-22T14:59:41.883Z,47.11
2017-08-22T15:02:10.253Z,47.32
2017-08-22T15:04:38.586Z,47.79
2017-08-22T15:07:07.068Z,48.30
2017-08-22T15:09:35.688Z,47.37
2017-08-22T15:12:04.040Z,47.02
2017-08-22T15:14:32.396Z,47.68
2017-08-22T15:17:00.748Z,48.52
2017-08-22T15:19:29.098Z,48.00
2017-08-22T15:21:57.450Z,48.21
2017-08-22T15:24:25.808Z,47.82
2017-08-22T15:26:54.161Z,47.06
2017-08-22T15:29:22.538Z,47.70
2017-08-22T15:31:50.894Z,47.25
2017-08-22T15:34:19.648Z,46.99
2017-08-22T15:36:48.005Z,48.24
2017-08-22T15:39:16.355Z,47.75
2017-08-22T15:41:44.728Z,47.69
2017-08-22T15:44:13.067Z,48.70
2017-08-22T15:46:41.448Z,48.58
2017-08-22T15:49:09.813Z,49.01
2017-08-22T15:51:38.164Z,49.74
2017-08-22T15:54:06.509Z,50.09
2017-08-22T15:56:34.972Z,49.42
2017-08-22T15:59:03.325Z,49.79
2017-08-22T16:01:31.689Z,49.71
2017-08-22T16:04:00.042Z,50.08
2017-08-22T16:06:28.482Z,49.50
2017-08-22T16:08:56.837Z,49.44
2017-08-22T16:11:25.547Z,49.63
2017-08-22T16:13:53.890Z,48.79
2017-08-22T16:16:22.245Z,49.49
2017-08-22T16:18:50.599Z,49.36
2017-08-22T16:21:18.948Z,48.97
2017-08-22T16:23:47.301Z,49.57
2017-08-22T16:26:15.653Z,48.95
2017-08-22T16:28:44.010Z,49.29
2017-08-22T16:31:12.627Z,49.63
2017-08-22T16:33:40.978Z,49.62
2017-08-22T16:36:09.340Z,50.18
2017-08-22T16:38:38.036Z,50.33
2017-08-22T16:41:06.383Z,50.52
2017-08-22T16:43:34.738Z,50.92
2017-08-22T16:46:03.082Z,51.69
2017-08-22T16:48:31.702Z,51.99
2017-08-22T16:51:00.050Z,51.94
2017-08-22T16:53:28.498Z,51.96
2017-08-22T16:55:56.862Z,52.10
2017-08-22T16:58:25.202Z,52.92
2017-08-22T17:00:53.557Z,52.01
2017-08-22T17:03:21.908Z,52.04
2017-08-22T17:05:50.422Z,52.49
2017-08-22T17:08:18.759Z,52.52
2017-08-22T17:10:47.109Z,51.55
2017-08-22T17:13:15.459Z,52.07
2017-08-22T17:15:43.804Z,51.49
2017-08-22T17:18:12.164Z,51.39
2017-08-22T17:20:40.964Z,51.69
2017-08-22T17:23:09.340Z,52.07
2017-08-22T17:25:37.683Z,52.00
2017-08-22T17:28:06.048Z,52.17
2017-08-22T17:30:34.398Z,52.37
2017-08-22T17:33:03.050Z,52.73
2017-08-22T17:35:31.395Z,52.96
2017-08-22T17:37:59.747Z,52.81
2017-08-22T17:40:28.090Z,53.17
2017-08-22T17:42:56.630Z,53.26
2017-08-22T17:45:24.990Z,53.88
2017-08-22T17:47:53.340Z,53.88
2017-08-22T17:50:21.699Z,54.10
2017-08-22T17:52:50.060Z,54.34
2017-08-22T17:55:18.437Z,54.02
2017-08-22T17:57:46.776Z,55.11
2017-08-22T18:00:15.145Z,54.92
2017-08-22T18:02:43.539Z,55.21
2017-08-22T18:05:11.900Z,55.78
2017-08-22T18:07:40.234Z,56.37
2017-08-22T18:10:08.818Z,56.06
2017-08-22T18:12:37.177Z,56.78
2017-08-22T18:15:05.773Z,56.75
2017-08-22T18:17:34.119Z,57.06
2017-08-22T18:20:02.469Z,57.52
2017-08-22T18:22:30.825Z,57.23
2017-08-22T18:24:59.428Z,57.43
2017-08-22T18:27:27.792Z,57.14
2017-08-22T18:29:56.148Z,57.58
2017-08-22T18:32:24.508Z,57.74
2017-08-22T18:34:52.851Z,57.96
2017-08-22T18:37:21.228Z,58.09
2017-08-22T18:39:49.570Z,57.82
2017-08-22T18:42:18.036Z,57.92
2017-08-22T18:44:46.387Z,57.81
2017-08-22T18:47:14.749Z,58.08
2017-08-22T18:49:43.192Z,58.13
2017-08-22T18:52:11.535Z,58.77
2017-08-22T18:54:39.893Z,58.50
2017-08-22T18:57:08.239Z,58.99
2017-08-22T18:59:36.604Z,59.78
2017-08-22T19:02:04.958Z,59.96
2017-08-22T19:04:33.325Z,59.50
2017-08-22T19:07:01.748Z,59.91
2017-08-22T19:09:30.832Z,60.66
2017-08-22T19:11:59.185Z,60.56
2017-08-22T19:14:27.541Z,60.23
2017-08-22T19:16:55.904Z,59.73
2017-08-22T19:19:24.252Z,59.94
2017-08-22T19:21:52.611Z,60.14
2017-08-22T19:24:20.963Z,59.57
2017-08-22T19:26:49.411Z,59.66
2017-08-22T19:29:17.755Z,59.88
2017-08-22T19:31:46.113Z,60.65
2017-08-22T19:34:14.469Z,61.02
2017-08-22T19:36:42.820Z,61.55
2017-08-22T19:39:11.176Z,61.31
2017-08-22T19:41:39.752Z,62.29
2017-08-22T19:44:08.105Z,62.54
2017-08-22T19:46:36.457Z,63.58
2017-08-22T19:49:04.824Z,63.72
2017-08-22T19:51:33.164Z,64.08
2017-08-22T19:54:01.559Z,65.21
2017-08-22T19:56:29.899Z,65.52
2017-08-22T19:58:58.295Z,65.21
2017-08-22T20:01:26.651Z,65.97
2017-08-22T20:03:55.020Z,66.35
2017-08-22T20:06:23.369Z,66.52
2017-08-22T20:08:51.745Z,66.62
2017-08-22T20:11:20.124Z,66.99
2017-08-22T20:13:48.603Z,67.48
2017-08-22T20:16:16.944Z,66.94
2017-08-22T20:18:45.355Z,68.33
2017-08-22T20:21:13.717Z,67.88
2017-08-22T20:23:42.069Z,68.50
2017-08-22T20:26:10.429Z,68.06
2017-08-22T20:28:38.884Z,68.39
2017-08-22T20:31:07.508Z,68.89
2017-08-22T20:33:35.866Z,69.42
2017-08-22T20:36:04.238Z,70.09
2017-08-22T20:38:32.580Z,70.62
2017-08-22T20:41:01.191Z,70.96
2017-08-22T20:43:29.581Z,71.04
2017-08-22T20:45:57.944Z,71.22
2017-08-22T20:48:26.313Z,71.11
2017-08-22T20:50:54.654Z,71.54
2017-08-22T20:53:23.017Z,72.25
2017-08-22T20:55:51.374Z,72.40
2017-08-22T20:58:19.738Z,72.76
2017-08-22T21:00:48.818Z,72.04
2017-08-22T21:03:17.176Z,72.46
2017-08-22T21:05:45.532Z,72.69
2017-08-22T21:08:14.331Z,72.61
2017-08-22T21:10:42.762Z,72.69
2017-08-22T21:13:11.126Z,73.09
2017-08-22T21:15:39.487Z,73.72
2017-08-22T21:18:07.835Z,73.20
2017-08-22T21:20:36.183Z,73.71
2017-08-22T21:23:04.548Z,73.66
2017-08-22T21:25:32.905Z,74.22
2017-08-22T21:28:01.722Z,73.99
2017-08-22T21:30:30.090Z,73.76
2017-08-22T21:32:58.450Z,74.27
2017-08-22T21:35:27.431Z,74.17
2017-08-22T21:37:55.782Z,74.57
2017-08-22T21:40:24.131Z,74.70
2017-08-22T21:42:52.493Z,75.06
2017-08-22T21:45:20.835Z,75.22
2017-08-22T21:47:49.209Z,75.25
2017-08-22T21:50:17.604Z,75.25
2017-08-22T21:52:45.956Z,75.19
2017-08-22T21:55:14.309Z,75.50
2017-08-22T21:57:42.660Z,76.56
2017-08-22T22:00:11.017Z,76.86
2017-08-22T22:02:39.377Z,76.87
2017-08-22T22:05:07.787Z,76.96
2017-08-22T22:07:36.324Z,76.42
2017-08-22T22:10:04.671Z,76.95
2017-08-22T22:12:33.014Z,77.27
2017-08-22T22:15:01.377Z,77.60
2017-08-22T22:17:29.728Z,77.68
2017-08-22T22:19:58.074Z,77.72
2017-08-22T22:22:26.435Z,77.96
2017-08-22T22:24:54.804Z,77.90
2017-08-22T22:27:23.142Z,78.27
2017-08-22T22:29:51.498Z,77.95
2017-08-22T22:32:19.861Z,78.08
2017-08-22T22:34:48.299Z,78.27
2017-08-22T22:37:16.640Z,78.16
2017-08-22T22:39:45.170Z,78.25
2017-08-22T22:42:13.546Z,78.59
2017-08-22T22:44:41.905Z,78.66
2017-08-22T22:47:10.255Z,78.76
2017-08-22T22:49:38.611Z,78.68
2017-08-22T22:52:06.967Z,78.06
2017-08-22T22:54:35.581Z,78.22
2017-08-22T22:57:03.950Z,78.82
2017-08-22T22:59:32.290Z,78.88
2017-08-22T23:02:00.924Z,79.39
2017-08-22T23:04:29.273Z,78.86
2017-08-22T23:06:57.638Z,78.32
2017-08-22T23:09:25.995Z,78.66
2017-08-22T23:11:54.507Z,78.74
2017-08-22T23:14:22.400Z,78.96
2017-08-22T23:16:50.303Z,80.06
2017-08-22T23:19:18.222Z,79.61
2017-08-22T23:21:46.113Z,80.03
2017-08-22T23:24:14.068Z,79.57
2017-08-22T23:26:41.970Z,79.45
2017-08-22T23:29:10.152Z,79.68
2017-08-22T23:31:38.060Z,79.31
2017-08-22T23:34:06.056Z,79.59
2017-08-22T23:36:34.006Z,79.52
2017-08-22T23:39:01.948Z,79.49
2017-08-22T23:41:29.864Z,79.50
2017-08-22T23:43:57.766Z,80.12
2017-08-22T23:46:25.663Z,80.52
2017-08-22T23:48:53.772Z,81.33
2017-08-22T23:51:21.682Z,80.93
2017-08-22T23:53:49.583Z,80.52
2017-08-22T23:56:17.498Z,81.07
2017-08-22T23:58:45.417Z,81.21
